sensor_id;sensor_type;location;lat;lon;timestamp;pressure;altitude;pressure_sealevel;temperature;humidity
49943;BME280;36011;53.362;58.948;2022-09-13T00:00:42;97627.44;;;2.91;80.58
49943;BME280;36011;53.362;58.948;2022-09-13T00:03:47;97624.13;;;2.85;80.47
49943;BME280;36011;53.362;58.948;2022-09-13T00:06:53;97585.72;;;2.57;80.45
49943;BME280;36011;53.362;58.948;2022-09-13T00:09:57;97629.53;;;2.76;80.53
49943;BME280;36011;53.362;58.948;2022-09-13T00:13:04;97630.47;;;2.72;80.34
49943;BME280;36011;53.362;58.948;2022-09-13T00:16:11;97639.22;;;2.67;80.20
49943;BME280;36011;53.362;58.948;2022-09-13T00:19:12;97631.44;;;2.66;80.42
49943;BME280;36011;53.362;58.948;2022-09-13T00:22:17;97638.44;;;2.64;80.47
49943;BME280;36011;53.362;58.948;2022-09-13T00:25:20;97631.66;;;2.57;80.57
49943;BME280;36011;53.362;58.948;2022-09-13T00:28:22;97648.03;;;2.60;80.60
49943;BME280;36011;53.362;58.948;2022-09-13T00:31:26;97642.78;;;2.63;80.66
49943;BME280;36011;53.362;58.948;2022-09-13T00:34:31;97645.38;;;2.63;80.71
49943;BME280;36011;53.362;58.948;2022-09-13T00:37:33;97647.97;;;2.63;80.76
49943;BME280;36011;53.362;58.948;2022-09-13T00:40:37;97648.84;;;2.64;80.66
49943;BME280;36011;53.362;58.948;2022-09-13T00:46:52;97648.84;;;2.64;80.90
49943;BME280;36011;53.362;58.948;2022-09-13T00:50:08;97653.13;;;2.66;81.03
49943;BME280;36011;53.362;58.948;2022-09-13T00:53:20;97651.44;;;2.62;80.86
49943;BME280;36011;53.362;58.948;2022-09-13T00:56:33;97661.91;;;2.59;81.00
49943;BME280;36011;53.362;58.948;2022-09-13T00:59:40;97660.22;;;2.58;80.62
49943;BME280;36011;53.362;58.948;2022-09-13T01:02:50;97665.53;;;2.52;80.83
49943;BME280;36011;53.362;58.948;2022-09-13T01:06:01;97663.88;;;2.48;80.71
49943;BME280;36011;53.362;58.948;2022-09-13T01:09:05;97660.56;;;2.40;80.83
49943;BME280;36011;53.362;58.948;2022-09-13T01:15:18;97677.09;;;2.36;80.56
49943;BME280;36011;53.362;58.948;2022-09-13T01:18:20;97676.28;;;2.34;80.59
49943;BME280;36011;53.362;58.948;2022-09-13T01:25:24;97682.81;;;2.53;80.69
49943;BME280;36011;53.362;58.948;2022-09-13T01:34:53;97688.38;;;3.19;80.17
49943;BME280;36011;53.362;58.948;2022-09-13T01:42:26;97684.25;;;3.83;79.55
49943;BME280;36011;53.362;58.948;2022-09-13T01:48:40;97683.16;;;4.24;78.74
49943;BME280;36011;53.362;58.948;2022-09-13T01:51:57;97685.31;;;4.41;78.40
49943;BME280;36011;53.362;58.948;2022-09-13T02:01:59;97685.75;;;4.88;77.04
49943;BME280;36011;53.362;58.948;2022-09-13T02:05:03;97684.72;;;4.92;76.56
49943;BME280;36011;53.362;58.948;2022-09-13T02:08:13;97692.31;;;5.02;76.28
49943;BME280;36011;53.362;58.948;2022-09-13T02:11:20;97686.91;;;5.08;76.21
49943;BME280;36011;53.362;58.948;2022-09-13T02:14:37;97690.88;;;5.21;76.10
49943;BME280;36011;53.362;58.948;2022-09-13T02:17:45;97692.06;;;5.37;76.10
49943;BME280;36011;53.362;58.948;2022-09-13T02:20:53;97695.06;;;5.53;75.72
49943;BME280;36011;53.362;58.948;2022-09-13T02:24:05;97680.88;;;5.62;75.77
49943;BME280;36011;53.362;58.948;2022-09-13T02:27:18;97691.72;;;5.76;75.70
49943;BME280;36011;53.362;58.948;2022-09-13T02:30:23;97688.13;;;5.80;75.78
49943;BME280;36011;53.362;58.948;2022-09-13T02:33:42;97692.94;;;5.93;75.73
49943;BME280;36011;53.362;58.948;2022-09-13T02:36:52;97692.88;;;5.96;75.62
49943;BME280;36011;53.362;58.948;2022-09-13T02:40:00;97704.84;;;6.03;75.52
49943;BME280;36011;53.362;58.948;2022-09-13T02:43:09;97696.00;;;6.05;75.76
49943;BME280;36011;53.362;58.948;2022-09-13T02:49:51;97705.03;;;6.22;75.64
49943;BME280;36011;53.362;58.948;2022-09-13T02:53:05;97709.31;;;6.24;75.49
49943;BME280;36011;53.362;58.948;2022-09-13T02:59:31;97702.50;;;6.20;75.71
49943;BME280;36011;53.362;58.948;2022-09-13T03:02:38;97711.72;;;6.30;75.62
49943;BME280;36011;53.362;58.948;2022-09-13T03:05:42;97695.25;;;6.28;75.59
49943;BME280;36011;53.362;58.948;2022-09-13T03:08:50;97713.13;;;6.41;75.59
49943;BME280;36011;53.362;58.948;2022-09-13T03:15:02;97712.75;;;6.26;75.04
49943;BME280;36011;53.362;58.948;2022-09-13T03:30:57;97718.78;;;6.02;76.45
49943;BME280;36011;53.362;58.948;2022-09-13T03:34:26;97711.13;;;5.97;76.38
49943;BME280;36011;53.362;58.948;2022-09-13T03:40:42;97717.72;;;6.07;77.11
49943;BME280;36011;53.362;58.948;2022-09-13T03:43:59;97713.06;;;6.17;77.49
49943;BME280;36011;53.362;58.948;2022-09-13T03:47:03;97711.13;;;6.22;77.40
49943;BME280;36011;53.362;58.948;2022-09-13T03:50:15;97713.38;;;6.33;77.06
49943;BME280;36011;53.362;58.948;2022-09-13T03:53:24;97713.03;;;6.42;77.05
49943;BME280;36011;53.362;58.948;2022-09-13T03:56:28;97707.56;;;6.50;77.17
49943;BME280;36011;53.362;58.948;2022-09-13T03:59:32;97709.81;;;6.61;76.84
49943;BME280;36011;53.362;58.948;2022-09-13T04:02:36;97706.13;;;6.66;76.60
49943;BME280;36011;53.362;58.948;2022-09-13T04:05:38;97712.53;;;6.81;76.28
49943;BME280;36011;53.362;58.948;2022-09-13T04:08:41;97698.16;;;6.93;76.32
49943;BME280;36011;53.362;58.948;2022-09-13T04:11:46;97715.00;;;7.09;75.65
49943;BME280;36011;53.362;58.948;2022-09-13T04:14:48;97706.03;;;7.16;75.26
49943;BME280;36011;53.362;58.948;2022-09-13T04:17:50;97714.31;;;7.28;75.49
49943;BME280;36011;53.362;58.948;2022-09-13T04:20:53;97708.72;;;7.37;74.95
49943;BME280;36011;53.362;58.948;2022-09-13T04:23:54;97711.53;;;7.54;74.21
49943;BME280;36011;53.362;58.948;2022-09-13T04:26:58;97717.88;;;7.71;73.82
49943;BME280;36011;53.362;58.948;2022-09-13T04:30:01;97720.94;;;7.82;73.62
49943;BME280;36011;53.362;58.948;2022-09-13T04:33:07;97723.97;;;7.93;73.41
49943;BME280;36011;53.362;58.948;2022-09-13T04:36:08;97723.72;;;7.99;72.99
49943;BME280;36011;53.362;58.948;2022-09-13T04:39:13;97723.31;;;8.08;72.88
49943;BME280;36011;53.362;58.948;2022-09-13T04:42:14;97724.66;;;8.19;72.61
49943;BME280;36011;53.362;58.948;2022-09-13T04:45:19;97730.31;;;8.30;72.30
49943;BME280;36011;53.362;58.948;2022-09-13T04:48:23;97720.25;;;8.41;72.24
49943;BME280;36011;53.362;58.948;2022-09-13T04:51:28;97728.38;;;8.56;71.76
49943;BME280;36011;53.362;58.948;2022-09-13T04:54:29;97725.72;;;8.76;71.35
49943;BME280;36011;53.362;58.948;2022-09-13T04:57:31;97732.72;;;8.96;71.10
49943;BME280;36011;53.362;58.948;2022-09-13T05:00:35;97732.91;;;9.12;70.59
49943;BME280;36011;53.362;58.948;2022-09-13T05:03:36;97731.91;;;9.33;69.65
49943;BME280;36011;53.362;58.948;2022-09-13T05:06:41;97734.44;;;9.54;68.85
49943;BME280;36011;53.362;58.948;2022-09-13T05:09:42;97730.31;;;9.67;68.05
49943;BME280;36011;53.362;58.948;2022-09-13T05:12:46;97738.25;;;9.84;67.63
49943;BME280;36011;53.362;58.948;2022-09-13T05:15:48;97729.31;;;9.88;67.74
49943;BME280;36011;53.362;58.948;2022-09-13T05:18:50;97739.38;;;9.98;67.66
49943;BME280;36011;53.362;58.948;2022-09-13T05:21:52;97742.38;;;10.44;67.01
49943;BME280;36011;53.362;58.948;2022-09-13T05:25:00;97748.41;;;14.79;58.72
49943;BME280;36011;53.362;58.948;2022-09-13T05:28:06;97754.72;;;20.69;45.60
49943;BME280;36011;53.362;58.948;2022-09-13T05:31:28;97766.69;;;25.42;35.49
49943;BME280;36011;53.362;58.948;2022-09-13T05:34:33;97762.25;;;28.76;30.83
49943;BME280;36011;53.362;58.948;2022-09-13T05:37:39;97768.56;;;31.12;26.30
49943;BME280;36011;53.362;58.948;2022-09-13T05:40:43;97766.59;;;33.46;23.50
49943;BME280;36011;53.362;58.948;2022-09-13T05:43:44;97760.72;;;35.08;20.94
49943;BME280;36011;53.362;58.948;2022-09-13T05:46:46;97762.38;;;36.27;19.32
49943;BME280;36011;53.362;58.948;2022-09-13T05:49:48;97749.59;;;37.18;17.60
49943;BME280;36011;53.362;58.948;2022-09-13T05:52:58;97758.50;;;37.98;16.21
49943;BME280;36011;53.362;58.948;2022-09-13T05:56:01;97755.78;;;39.23;15.60
49943;BME280;36011;53.362;58.948;2022-09-13T05:59:03;97754.91;;;40.40;14.91
49943;BME280;36011;53.362;58.948;2022-09-13T06:02:08;97748.44;;;41.38;13.49
49943;BME280;36011;53.362;58.948;2022-09-13T06:05:13;97738.34;;;42.19;12.35
49943;BME280;36011;53.362;58.948;2022-09-13T06:08:19;97742.31;;;42.57;12.25
49943;BME280;36011;53.362;58.948;2022-09-13T06:11:24;97741.75;;;42.60;11.81
49943;BME280;36011;53.362;58.948;2022-09-13T06:14:28;97743.53;;;43.25;11.35
49943;BME280;36011;53.362;58.948;2022-09-13T06:17:33;97740.66;;;43.93;10.69
49943;BME280;36011;53.362;58.948;2022-09-13T06:20:37;97736.47;;;43.43;10.86
49943;BME280;36011;53.362;58.948;2022-09-13T06:23:40;97739.72;;;44.27;10.51
49943;BME280;36011;53.362;58.948;2022-09-13T06:26:45;97739.72;;;45.27;9.84
49943;BME280;36011;53.362;58.948;2022-09-13T06:29:47;97729.75;;;46.14;8.95
49943;BME280;36011;53.362;58.948;2022-09-13T06:32:48;97722.09;;;46.47;8.88
49943;BME280;36011;53.362;58.948;2022-09-13T06:35:49;97719.19;;;46.66;8.64
49943;BME280;36011;53.362;58.948;2022-09-13T06:38:53;97731.66;;;47.36;8.04
49943;BME280;36011;53.362;58.948;2022-09-13T06:41:57;97723.25;;;47.50;7.96
49943;BME280;36011;53.362;58.948;2022-09-13T06:45:02;97721.84;;;47.39;7.87
49943;BME280;36011;53.362;58.948;2022-09-13T06:48:10;97712.63;;;47.52;7.76
49943;BME280;36011;53.362;58.948;2022-09-13T06:51:16;97721.72;;;48.06;7.49
49943;BME280;36011;53.362;58.948;2022-09-13T06:54:23;97719.66;;;47.81;7.74
49943;BME280;36011;53.362;58.948;2022-09-13T06:57:24;97715.03;;;47.00;8.23
49943;BME280;36011;53.362;58.948;2022-09-13T07:00:26;97715.41;;;47.30;7.88
49943;BME280;36011;53.362;58.948;2022-09-13T07:03:32;97716.75;;;46.37;7.80
49943;BME280;36011;53.362;58.948;2022-09-13T07:06:39;97715.81;;;45.26;8.66
49943;BME280;36011;53.362;58.948;2022-09-13T07:09:40;97716.75;;;45.82;8.42
49943;BME280;36011;53.362;58.948;2022-09-13T07:12:45;97706.78;;;42.35;9.85
49943;BME280;36011;53.362;58.948;2022-09-13T07:15:50;97682.72;;;37.07;12.67
49943;BME280;36011;53.362;58.948;2022-09-13T07:18:54;97688.78;;;32.68;15.85
49943;BME280;36011;53.362;58.948;2022-09-13T07:21:56;97679.03;;;29.89;17.91
49943;BME280;36011;53.362;58.948;2022-09-13T07:25:01;97671.59;;;28.14;19.59
49943;BME280;36011;53.362;58.948;2022-09-13T07:28:05;97674.19;;;27.42;20.31
49943;BME280;36011;53.362;58.948;2022-09-13T07:31:32;97674.38;;;27.85;19.94
49943;BME280;36011;53.362;58.948;2022-09-13T07:34:34;97672.22;;;27.65;19.82
49943;BME280;36011;53.362;58.948;2022-09-13T07:37:38;97667.38;;;27.90;19.53
49943;BME280;36011;53.362;58.948;2022-09-13T07:40:45;97667.03;;;26.35;21.24
49943;BME280;36011;53.362;58.948;2022-09-13T07:43:56;97664.47;;;29.21;19.18
49943;BME280;36011;53.362;58.948;2022-09-13T07:47:01;97679.97;;;32.73;15.63
49943;BME280;36011;53.362;58.948;2022-09-13T07:50:03;97690.25;;;36.38;13.27
49943;BME280;36011;53.362;58.948;2022-09-13T07:53:05;97694.22;;;39.35;11.22
49943;BME280;36011;53.362;58.948;2022-09-13T07:56:16;97683.81;;;40.68;10.36
49943;BME280;36011;53.362;58.948;2022-09-13T07:59:23;97690.94;;;40.58;10.05
49943;BME280;36011;53.362;58.948;2022-09-13T08:02:27;97688.69;;;41.93;9.58
49943;BME280;36011;53.362;58.948;2022-09-13T08:05:31;97684.72;;;44.10;8.52
49943;BME280;36011;53.362;58.948;2022-09-13T08:08:33;97708.44;;;45.96;7.68
49943;BME280;36011;53.362;58.948;2022-09-13T08:11:38;97702.09;;;46.45;7.12
49943;BME280;36011;53.362;58.948;2022-09-13T08:14:45;97696.34;;;46.28;6.94
49943;BME280;36011;53.362;58.948;2022-09-13T08:17:46;97695.53;;;45.58;7.45
49943;BME280;36011;53.362;58.948;2022-09-13T08:20:56;97697.50;;;44.11;7.91
49943;BME280;36011;53.362;58.948;2022-09-13T08:24:01;97691.34;;;44.14;7.79
49943;BME280;36011;53.362;58.948;2022-09-13T08:27:07;97693.34;;;45.55;7.38
49943;BME280;36011;53.362;58.948;2022-09-13T08:30:09;97685.97;;;46.56;6.69
49943;BME280;36011;53.362;58.948;2022-09-13T08:33:14;97690.75;;;47.14;6.85
49943;BME280;36011;53.362;58.948;2022-09-13T08:36:18;97686.38;;;44.54;7.53
49943;BME280;36011;53.362;58.948;2022-09-13T08:39:23;97668.13;;;39.05;10.53
49943;BME280;36011;53.362;58.948;2022-09-13T08:46:07;97658.38;;;35.80;12.40
49943;BME280;36011;53.362;58.948;2022-09-13T08:59:28;97676.84;;;43.75;8.30
49943;BME280;36011;53.362;58.948;2022-09-13T09:06:23;97664.94;;;43.45;7.53
49943;BME280;36011;53.362;58.948;2022-09-13T09:09:25;97654.09;;;42.51;8.10
49943;BME280;36011;53.362;58.948;2022-09-13T09:12:48;97650.19;;;42.57;8.19
49943;BME280;36011;53.362;58.948;2022-09-13T09:16:02;97645.63;;;41.72;8.51
49943;BME280;36011;53.362;58.948;2022-09-13T09:19:33;97636.69;;;41.95;8.30
49943;BME280;36011;53.362;58.948;2022-09-13T09:22:36;97635.00;;;41.19;8.53
49943;BME280;36011;53.362;58.948;2022-09-13T09:25:38;97631.53;;;42.33;8.27
49943;BME280;36011;53.362;58.948;2022-09-13T09:28:45;97634.13;;;40.93;8.60
49943;BME280;36011;53.362;58.948;2022-09-13T09:38:43;97633.44;;;43.89;6.97
49943;BME280;36011;53.362;58.948;2022-09-13T09:41:50;97638.88;;;44.56;6.60
49943;BME280;36011;53.362;58.948;2022-09-13T09:45:17;97640.97;;;44.07;6.73
49943;BME280;36011;53.362;58.948;2022-09-13T09:48:23;97651.25;;;45.76;6.49
49943;BME280;36011;53.362;58.948;2022-09-13T09:51:30;97635.88;;;43.42;7.24
49943;BME280;36011;53.362;58.948;2022-09-13T09:54:33;97629.16;;;43.24;7.56
49943;BME280;36011;53.362;58.948;2022-09-13T09:57:55;97641.13;;;43.97;6.87
49943;BME280;36011;53.362;58.948;2022-09-13T10:00:57;97632.16;;;42.15;7.71
49943;BME280;36011;53.362;58.948;2022-09-13T10:07:29;97612.31;;;40.56;8.53
49943;BME280;36011;53.362;58.948;2022-09-13T10:10:43;97616.19;;;40.50;8.13
49943;BME280;36011;53.362;58.948;2022-09-13T10:14:03;97624.50;;;40.75;8.24
49943;BME280;36011;53.362;58.948;2022-09-13T10:17:16;97612.09;;;40.88;8.06
49943;BME280;36011;53.362;58.948;2022-09-13T10:20:20;97620.50;;;40.05;8.34
49943;BME280;36011;53.362;58.948;2022-09-13T10:23:26;97600.22;;;36.01;10.43
49943;BME280;36011;53.362;58.948;2022-09-13T10:26:31;97592.47;;;31.86;13.47
49943;BME280;36011;53.362;58.948;2022-09-13T10:29:38;97594.25;;;29.74;14.73
49943;BME280;36011;53.362;58.948;2022-09-13T10:32:40;97581.53;;;28.20;15.94
49943;BME280;36011;53.362;58.948;2022-09-13T10:35:47;97588.88;;;26.50;17.80
49943;BME280;36011;53.362;58.948;2022-09-13T10:39:12;97584.25;;;28.98;15.75
49943;BME280;36011;53.362;58.948;2022-09-13T10:42:21;97594.00;;;32.45;13.39
49943;BME280;36011;53.362;58.948;2022-09-13T10:45:29;97605.63;;;34.31;11.75
49943;BME280;36011;53.362;58.948;2022-09-13T10:48:46;97606.66;;;35.43;11.37
49943;BME280;36011;53.362;58.948;2022-09-13T10:51:47;97610.09;;;36.31;10.50
49943;BME280;36011;53.362;58.948;2022-09-13T10:54:48;97602.06;;;37.08;10.11
49943;BME280;36011;53.362;58.948;2022-09-13T10:58:14;97610.84;;;37.88;9.79
49943;BME280;36011;53.362;58.948;2022-09-13T11:01:30;97599.84;;;37.88;10.00
49943;BME280;36011;53.362;58.948;2022-09-13T11:14:44;97591.28;;;38.07;9.92
49943;BME280;36011;53.362;58.948;2022-09-13T11:18:36;97599.88;;;38.15;10.39
49943;BME280;36011;53.362;58.948;2022-09-13T11:29:00;97574.44;;;37.32;10.50
49943;BME280;36011;53.362;58.948;2022-09-13T11:35:42;97572.13;;;35.53;11.50
49943;BME280;36011;53.362;58.948;2022-09-13T11:39:00;97546.53;;;34.72;11.87
49943;BME280;36011;53.362;58.948;2022-09-13T11:42:24;97551.69;;;33.96;12.69
49943;BME280;36011;53.362;58.948;2022-09-13T11:45:49;97540.97;;;31.46;14.10
49943;BME280;36011;53.362;58.948;2022-09-13T11:49:17;97535.84;;;28.88;16.21
49943;BME280;36011;53.362;58.948;2022-09-13T11:52:52;97531.03;;;26.45;18.31
49943;BME280;36011;53.362;58.948;2022-09-13T11:55:59;97531.28;;;25.03;18.92
49943;BME280;36011;53.362;58.948;2022-09-13T12:02:39;97530.81;;;22.94;21.61
49943;BME280;36011;53.362;58.948;2022-09-13T12:05:56;97555.03;;;22.24;22.51
49943;BME280;36011;53.362;58.948;2022-09-13T12:09:06;97548.25;;;21.58;23.50
49943;BME280;36011;53.362;58.948;2022-09-13T12:12:18;97542.31;;;21.08;23.72
49943;BME280;36011;53.362;58.948;2022-09-13T12:15:31;97545.22;;;20.88;24.12
49943;BME280;36011;53.362;58.948;2022-09-13T12:18:42;97543.03;;;20.73;24.17
49943;BME280;36011;53.362;58.948;2022-09-13T12:21:50;97549.13;;;20.66;25.33
49943;BME280;36011;53.362;58.948;2022-09-13T12:24:58;97544.22;;;20.51;25.61
49943;BME280;36011;53.362;58.948;2022-09-13T12:31:33;97545.91;;;20.42;25.41
49943;BME280;36011;53.362;58.948;2022-09-13T12:38:08;97553.72;;;21.38;24.39
49943;BME280;36011;53.362;58.948;2022-09-13T13:02:37;97531.78;;;24.18;21.49
49943;BME280;36011;53.362;58.948;2022-09-13T13:05:43;97542.78;;;23.42;22.23
49943;BME280;36011;53.362;58.948;2022-09-13T13:08:52;97536.84;;;22.61;22.82
49943;BME280;36011;53.362;58.948;2022-09-13T13:11:55;97545.38;;;22.13;23.65
49943;BME280;36011;53.362;58.948;2022-09-13T13:15:02;97536.22;;;21.62;24.24
49943;BME280;36011;53.362;58.948;2022-09-13T13:18:27;97537.53;;;21.12;24.49
49943;BME280;36011;53.362;58.948;2022-09-13T13:21:39;97541.13;;;20.56;25.29
49943;BME280;36011;53.362;58.948;2022-09-13T13:24:46;97534.75;;;20.00;26.17
49943;BME280;36011;53.362;58.948;2022-09-13T13:27:50;97529.94;;;19.55;26.91
49943;BME280;36011;53.362;58.948;2022-09-13T13:31:00;97535.81;;;19.20;26.88
49943;BME280;36011;53.362;58.948;2022-09-13T13:40:24;97549.72;;;18.83;27.21
49943;BME280;36011;53.362;58.948;2022-09-13T13:43:32;97538.88;;;18.54;27.83
49943;BME280;36011;53.362;58.948;2022-09-13T13:46:34;97548.28;;;18.27;27.63
49943;BME280;36011;53.362;58.948;2022-09-13T13:56:06;97562.44;;;17.74;28.91
49943;BME280;36011;53.362;58.948;2022-09-13T13:59:20;97552.25;;;17.59;29.07
49943;BME280;36011;53.362;58.948;2022-09-13T14:02:32;97570.91;;;17.47;28.94
49943;BME280;36011;53.362;58.948;2022-09-13T14:09:18;97583.53;;;17.23;29.44
49943;BME280;36011;53.362;58.948;2022-09-13T14:19:52;97582.09;;;16.74;30.40
49943;BME280;36011;53.362;58.948;2022-09-13T14:23:14;97587.75;;;16.58;31.21
49943;BME280;36011;53.362;58.948;2022-09-13T14:26:16;97583.13;;;16.37;31.69
49943;BME280;36011;53.362;58.948;2022-09-13T14:29:21;97593.41;;;16.31;31.91
49943;BME280;36011;53.362;58.948;2022-09-13T14:32:40;97592.88;;;16.14;31.87
49943;BME280;36011;53.362;58.948;2022-09-13T14:35:44;97603.50;;;15.90;33.35
49943;BME280;36011;53.362;58.948;2022-09-13T14:38:53;97604.28;;;15.68;34.13
49943;BME280;36011;53.362;58.948;2022-09-13T14:45:27;97621.19;;;15.18;35.57
49943;BME280;36011;53.362;58.948;2022-09-13T14:48:45;97621.41;;;15.02;37.06
49943;BME280;36011;53.362;58.948;2022-09-13T14:51:54;97615.09;;;14.79;36.25
49943;BME280;36011;53.362;58.948;2022-09-13T14:55:47;97622.50;;;14.74;38.18
49943;BME280;36011;53.362;58.948;2022-09-13T15:01:35;97628.00;;;14.32;41.49
49943;BME280;36011;53.362;58.948;2022-09-13T15:04:39;97623.38;;;14.09;42.88
49943;BME280;36011;53.362;58.948;2022-09-13T15:07:42;97633.84;;;13.98;43.03
49943;BME280;36011;53.362;58.948;2022-09-13T15:10:49;97644.84;;;13.91;43.45
49943;BME280;36011;53.362;58.948;2022-09-13T15:14:00;97635.06;;;13.79;44.79
49943;BME280;36011;53.362;58.948;2022-09-13T15:17:12;97619.16;;;13.66;45.41
49943;BME280;36011;53.362;58.948;2022-09-13T15:20:22;97635.63;;;13.57;45.68
49943;BME280;36011;53.362;58.948;2022-09-13T15:26:33;97624.66;;;13.22;46.68
49943;BME280;36011;53.362;58.948;2022-09-13T15:29:40;97624.47;;;12.96;47.46
49943;BME280;36011;53.362;58.948;2022-09-13T15:33:24;97636.44;;;12.88;48.16
49943;BME280;36011;53.362;58.948;2022-09-13T15:36:27;97640.50;;;12.65;48.55
49943;BME280;36011;53.362;58.948;2022-09-13T15:40:14;97643.13;;;12.50;49.55
49943;BME280;36011;53.362;58.948;2022-09-13T15:43:16;97650.06;;;12.23;48.02
49943;BME280;36011;53.362;58.948;2022-09-13T15:46:20;97647.19;;;12.11;49.58
49943;BME280;36011;53.362;58.948;2022-09-13T15:49:23;97648.34;;;12.07;50.29
49943;BME280;36011;53.362;58.948;2022-09-13T15:52:32;97650.31;;;12.04;51.10
49943;BME280;36011;53.362;58.948;2022-09-13T15:55:38;97646.41;;;11.95;51.35
49943;BME280;36011;53.362;58.948;2022-09-13T15:58:41;97653.56;;;11.93;51.51
49943;BME280;36011;53.362;58.948;2022-09-13T16:01:43;97654.91;;;11.84;51.62
49943;BME280;36011;53.362;58.948;2022-09-13T16:04:46;97664.47;;;11.87;51.64
49943;BME280;36011;53.362;58.948;2022-09-13T16:07:47;97667.19;;;11.85;51.48
49943;BME280;36011;53.362;58.948;2022-09-13T16:10:51;97653.94;;;11.87;51.45
49943;BME280;36011;53.362;58.948;2022-09-13T16:13:56;97650.16;;;11.91;51.37
49943;BME280;36011;53.362;58.948;2022-09-13T16:17:23;97662.84;;;12.00;52.23
49943;BME280;36011;53.362;58.948;2022-09-13T16:20:28;97662.25;;;11.95;51.21
49943;BME280;36011;53.362;58.948;2022-09-13T16:23:38;97658.84;;;11.93;51.81
49943;BME280;36011;53.362;58.948;2022-09-13T16:26:42;97653.94;;;11.87;51.54
49943;BME280;36011;53.362;58.948;2022-09-13T16:29:44;97657.63;;;11.83;51.66
49943;BME280;36011;53.362;58.948;2022-09-13T16:32:49;97656.28;;;11.76;51.91
49943;BME280;36011;53.362;58.948;2022-09-13T16:35:55;97642.88;;;11.64;51.95
49943;BME280;36011;53.362;58.948;2022-09-13T16:39:00;97649.22;;;11.60;51.97
49943;BME280;36011;53.362;58.948;2022-09-13T16:42:02;97649.88;;;11.50;52.41
49943;BME280;36011;53.362;58.948;2022-09-13T16:45:05;97649.16;;;11.46;52.44
49943;BME280;36011;53.362;58.948;2022-09-13T16:48:09;97644.06;;;11.43;52.67
49943;BME280;36011;53.362;58.948;2022-09-13T16:51:13;97645.97;;;11.41;52.89
49943;BME280;36011;53.362;58.948;2022-09-13T16:54:17;97652.56;;;11.32;53.05
49943;BME280;36011;53.362;58.948;2022-09-13T16:57:23;97642.03;;;11.16;53.37
49943;BME280;36011;53.362;58.948;2022-09-13T17:00:26;97646.44;;;11.00;54.12
49943;BME280;36011;53.362;58.948;2022-09-13T17:03:31;97635.97;;;10.83;54.20
49943;BME280;36011;53.362;58.948;2022-09-13T17:06:34;97645.53;;;10.68;54.64
49943;BME280;36011;53.362;58.948;2022-09-13T17:09:39;97650.59;;;10.55;54.99
49943;BME280;36011;53.362;58.948;2022-09-13T17:12:46;97648.66;;;10.41;55.37
49943;BME280;36011;53.362;58.948;2022-09-13T17:15:51;97644.91;;;10.29;55.65
49943;BME280;36011;53.362;58.948;2022-09-13T17:18:52;97647.88;;;10.22;56.09
49943;BME280;36011;53.362;58.948;2022-09-13T17:21:59;97646.50;;;10.15;56.24
49943;BME280;36011;53.362;58.948;2022-09-13T17:25:01;97645.03;;;10.09;56.36
49943;BME280;36011;53.362;58.948;2022-09-13T17:28:07;97636.06;;;9.96;56.93
49943;BME280;36011;53.362;58.948;2022-09-13T17:31:11;97637.22;;;9.90;56.86
49943;BME280;36011;53.362;58.948;2022-09-13T17:34:12;97627.22;;;9.79;57.00
49943;BME280;36011;53.362;58.948;2022-09-13T17:37:13;97640.53;;;9.76;57.20
49943;BME280;36011;53.362;58.948;2022-09-13T17:40:15;97640.97;;;9.67;57.75
49943;BME280;36011;53.362;58.948;2022-09-13T17:43:21;97635.50;;;9.54;57.41
49943;BME280;36011;53.362;58.948;2022-09-13T17:46:26;97622.56;;;9.50;57.57
49943;BME280;36011;53.362;58.948;2022-09-13T17:49:29;97620.09;;;9.47;57.74
49943;BME280;36011;53.362;58.948;2022-09-13T17:52:36;97628.25;;;9.40;58.35
49943;BME280;36011;53.362;58.948;2022-09-13T17:55:47;97625.06;;;9.34;58.77
49943;BME280;36011;53.362;58.948;2022-09-13T17:58:54;97633.03;;;9.32;58.57
49943;BME280;36011;53.362;58.948;2022-09-13T18:02:01;97626.59;;;9.20;58.72
49943;BME280;36011;53.362;58.948;2022-09-13T18:05:05;97623.38;;;9.14;58.74
49943;BME280;36011;53.362;58.948;2022-09-13T18:08:09;97641.75;;;9.14;58.66
49943;BME280;36011;53.362;58.948;2022-09-13T18:11:13;97624.66;;;9.05;59.01
49943;BME280;36011;53.362;58.948;2022-09-13T18:14:18;97629.38;;;8.98;59.09
49943;BME280;36011;53.362;58.948;2022-09-13T18:17:26;97557.22;;;8.50;59.44
49943;BME280;36011;53.362;58.948;2022-09-13T18:20:28;97610.78;;;8.84;59.70
49943;BME280;36011;53.362;58.948;2022-09-13T18:23:29;97605.03;;;8.76;60.02
49943;BME280;36011;53.362;58.948;2022-09-13T18:26:35;97607.72;;;8.74;60.17
49943;BME280;36011;53.362;58.948;2022-09-13T18:29:38;97607.94;;;8.70;60.11
49943;BME280;36011;53.362;58.948;2022-09-13T18:32:46;97597.72;;;8.64;60.34
49943;BME280;36011;53.362;58.948;2022-09-13T18:36:02;97603.88;;;8.63;60.50
49943;BME280;36011;53.362;58.948;2022-09-13T18:39:11;97605.75;;;8.61;60.26
49943;BME280;36011;53.362;58.948;2022-09-13T18:42:17;97605.59;;;8.64;59.93
49943;BME280;36011;53.362;58.948;2022-09-13T18:45:19;97604.16;;;8.57;59.94
49943;BME280;36011;53.362;58.948;2022-09-13T18:48:20;97613.53;;;8.81;58.91
49943;BME280;36011;53.362;58.948;2022-09-13T18:51:24;97624.19;;;8.78;58.83
49943;BME280;36011;53.362;58.948;2022-09-13T18:54:28;97629.81;;;8.69;59.18
49943;BME280;36011;53.362;58.948;2022-09-13T18:57:29;97623.31;;;8.59;58.97
49943;BME280;36011;53.362;58.948;2022-09-13T19:00:34;97613.25;;;8.49;59.14
49943;BME280;36011;53.362;58.948;2022-09-13T19:03:39;97633.53;;;8.65;58.44
49943;BME280;36011;53.362;58.948;2022-09-13T19:06:51;97635.72;;;8.74;58.99
49943;BME280;36011;53.362;58.948;2022-09-13T19:09:58;97633.31;;;8.88;57.92
49943;BME280;36011;53.362;58.948;2022-09-13T19:13:02;97625.06;;;8.97;57.53
49943;BME280;36011;53.362;58.948;2022-09-13T19:16:12;97634.41;;;9.03;57.51